KDFW/DFW METAR and TAF weather

Enter ICAO airport designator
Station Type Date Time Source
KDFW METAR 2022/12/04 11:53 UTC NOAA

KDFW 041153Z 02005KT 10SM SCT035 BKN050 09/M01 A3030 RMK AO2 SLP260 T00891011 10100 20083 58013


Station Type Date Time Source
KDFW Decoded METAR 2022/12/04 11:53 UTC NOAA

DALLAS/FT. WORTH INTERNATIONAL AIRPORT , TX, United States (KDFW) 32-54N 097-02W 174M
Dec 04, 2022 - 06:53 AM EST / 2022.12.04 1153 UTC
Wind: from the NNE (020 degrees) at 6 MPH (5 KT):0
Visibility: 10 mile(s):0
Sky conditions: mostly cloudy
Temperature: 48.0 F (8.9 C)
Dew Point: 30.0 F (-1.1 C)
Relative Humidity: 49%
Pressure (altimeter): 30.3 in. Hg (1026 hPa)
Pressure tendency: 0.04 inches (1.3 hPa) lower than three hours ago
ob: KDFW 041153Z 02005KT 10SM SCT035 BKN050 09/M01 A3030 RMK AO2 SLP260 T00891011 10100 20083 58013
cycle: 12

Station Type Date Time Source
KDFW TAF 2022/12/04 12:27 UTC NOAA

TAF KDFW 041125Z 0412/0518 34006KT P6SM SCT025 OVC035
FM041500 16006KT P6SM FEW025 BKN040
FM050100 17007KT P6SM BKN017
TEMPO 0502/0506 4SM -DZ BR BKN009

Example: see airport list